sensor_id;sensor_type;location;lat;lon;timestamp;P1;durP1;ratioP1;P2;durP2;ratioP2
13171;SDS011;6651;53.200;10.432;2023-06-10T00:01:30;6.00;;;4.18;;
13171;SDS011;6651;53.200;10.432;2023-06-10T00:03:56;7.22;;;4.30;;
13171;SDS011;6651;53.200;10.432;2023-06-10T00:06:22;6.65;;;4.13;;
13171;SDS011;6651;53.200;10.432;2023-06-10T00:08:49;9.82;;;4.38;;
13171;SDS011;6651;53.200;10.432;2023-06-10T00:11:15;7.63;;;4.47;;
13171;SDS011;6651;53.200;10.432;2023-06-10T00:13:41;7.72;;;4.07;;
13171;SDS011;6651;53.200;10.432;2023-06-10T00:16:07;7.63;;;3.63;;
13171;SDS011;6651;53.200;10.432;2023-06-10T00:18:33;7.00;;;3.55;;
13171;SDS011;6651;53.200;10.432;2023-06-10T00:21:03;7.43;;;3.60;;
13171;SDS011;6651;53.200;10.432;2023-06-10T00:23:30;8.02;;;3.88;;
13171;SDS011;6651;53.200;10.432;2023-06-10T00:25:59;6.60;;;4.10;;
13171;SDS011;6651;53.200;10.432;2023-06-10T00:28:25;7.03;;;4.00;;
13171;SDS011;6651;53.200;10.432;2023-06-10T00:30:51;6.78;;;3.97;;
13171;SDS011;6651;53.200;10.432;2023-06-10T00:33:17;7.70;;;4.30;;
13171;SDS011;6651;53.200;10.432;2023-06-10T00:35:43;7.78;;;4.30;;
13171;SDS011;6651;53.200;10.432;2023-06-10T00:38:09;6.72;;;4.32;;
13171;SDS011;6651;53.200;10.432;2023-06-10T00:40:39;8.30;;;4.38;;
13171;SDS011;6651;53.200;10.432;2023-06-10T00:43:06;6.63;;;3.92;;
13171;SDS011;6651;53.200;10.432;2023-06-10T00:45:32;9.98;;;4.63;;
13171;SDS011;6651;53.200;10.432;2023-06-10T00:47:58;10.25;;;4.55;;
13171;SDS011;6651;53.200;10.432;2023-06-10T00:50:25;8.93;;;4.65;;
13171;SDS011;6651;53.200;10.432;2023-06-10T00:52:51;7.95;;;4.90;;
13171;SDS011;6651;53.200;10.432;2023-06-10T00:55:17;6.90;;;4.65;;
13171;SDS011;6651;53.200;10.432;2023-06-10T00:57:44;8.68;;;5.05;;
13171;SDS011;6651;53.200;10.432;2023-06-10T01:00:11;8.65;;;4.70;;
13171;SDS011;6651;53.200;10.432;2023-06-10T01:02:37;8.80;;;4.72;;
13171;SDS011;6651;53.200;10.432;2023-06-10T01:05:03;8.25;;;4.85;;
13171;SDS011;6651;53.200;10.432;2023-06-10T01:07:50;10.55;;;5.05;;
13171;SDS011;6651;53.200;10.432;2023-06-10T01:10:26;9.20;;;4.45;;
13171;SDS011;6651;53.200;10.432;2023-06-10T01:12:56;9.85;;;4.60;;
13171;SDS011;6651;53.200;10.432;2023-06-10T01:15:24;8.82;;;5.10;;
13171;SDS011;6651;53.200;10.432;2023-06-10T01:20:19;8.40;;;4.82;;
13171;SDS011;6651;53.200;10.432;2023-06-10T01:22:45;10.18;;;4.80;;
13171;SDS011;6651;53.200;10.432;2023-06-10T01:25:12;9.45;;;4.65;;
13171;SDS011;6651;53.200;10.432;2023-06-10T01:27:39;9.75;;;4.55;;
13171;SDS011;6651;53.200;10.432;2023-06-10T01:30:08;10.25;;;4.65;;
13171;SDS011;6651;53.200;10.432;2023-06-10T01:32:45;11.07;;;5.05;;
13171;SDS011;6651;53.200;10.432;2023-06-10T01:35:12;10.68;;;5.10;;
13171;SDS011;6651;53.200;10.432;2023-06-10T01:37:39;9.65;;;4.75;;
13171;SDS011;6651;53.200;10.432;2023-06-10T01:40:06;9.95;;;4.70;;
13171;SDS011;6651;53.200;10.432;2023-06-10T01:42:33;8.82;;;4.47;;
13171;SDS011;6651;53.200;10.432;2023-06-10T01:44:59;13.38;;;4.70;;
13171;SDS011;6651;53.200;10.432;2023-06-10T01:47:25;8.88;;;4.65;;
13171;SDS011;6651;53.200;10.432;2023-06-10T01:49:51;13.13;;;4.47;;
13171;SDS011;6651;53.200;10.432;2023-06-10T01:52:17;8.27;;;4.93;;
13171;SDS011;6651;53.200;10.432;2023-06-10T01:54:43;10.10;;;4.85;;
13171;SDS011;6651;53.200;10.432;2023-06-10T01:57:09;9.55;;;5.07;;
13171;SDS011;6651;53.200;10.432;2023-06-10T01:59:36;10.52;;;4.85;;
13171;SDS011;6651;53.200;10.432;2023-06-10T02:02:03;9.95;;;4.97;;
13171;SDS011;6651;53.200;10.432;2023-06-10T02:04:29;8.52;;;4.50;;
13171;SDS011;6651;53.200;10.432;2023-06-10T02:06:55;9.93;;;4.85;;
13171;SDS011;6651;53.200;10.432;2023-06-10T02:09:21;10.27;;;5.32;;
13171;SDS011;6651;53.200;10.432;2023-06-10T02:11:48;9.23;;;5.00;;
13171;SDS011;6651;53.200;10.432;2023-06-10T02:14:14;8.75;;;4.43;;
13171;SDS011;6651;53.200;10.432;2023-06-10T02:16:40;7.93;;;4.60;;
13171;SDS011;6651;53.200;10.432;2023-06-10T02:19:11;8.90;;;4.53;;
13171;SDS011;6651;53.200;10.432;2023-06-10T02:21:37;8.75;;;4.88;;
13171;SDS011;6651;53.200;10.432;2023-06-10T02:24:03;6.53;;;4.32;;
13171;SDS011;6651;53.200;10.432;2023-06-10T02:26:29;7.95;;;4.25;;
13171;SDS011;6651;53.200;10.432;2023-06-10T02:28:55;10.65;;;4.68;;
13171;SDS011;6651;53.200;10.432;2023-06-10T02:31:21;8.25;;;4.68;;
13171;SDS011;6651;53.200;10.432;2023-06-10T02:33:49;11.80;;;5.05;;
13171;SDS011;6651;53.200;10.432;2023-06-10T02:36:15;10.73;;;4.80;;
13171;SDS011;6651;53.200;10.432;2023-06-10T02:38:41;8.80;;;4.40;;
13171;SDS011;6651;53.200;10.432;2023-06-10T02:41:07;9.18;;;4.43;;
13171;SDS011;6651;53.200;10.432;2023-06-10T02:43:33;9.40;;;4.53;;
13171;SDS011;6651;53.200;10.432;2023-06-10T02:45:59;10.05;;;4.53;;
13171;SDS011;6651;53.200;10.432;2023-06-10T02:48:25;8.68;;;4.40;;
13171;SDS011;6651;53.200;10.432;2023-06-10T02:50:52;9.27;;;4.55;;
13171;SDS011;6651;53.200;10.432;2023-06-10T02:53:18;9.98;;;4.65;;
13171;SDS011;6651;53.200;10.432;2023-06-10T02:55:44;7.50;;;4.50;;
13171;SDS011;6651;53.200;10.432;2023-06-10T02:58:10;11.93;;;4.90;;
13171;SDS011;6651;53.200;10.432;2023-06-10T03:00:36;9.93;;;4.60;;
13171;SDS011;6651;53.200;10.432;2023-06-10T03:03:03;9.30;;;4.13;;
13171;SDS011;6651;53.200;10.432;2023-06-10T03:05:30;8.70;;;4.32;;
13171;SDS011;6651;53.200;10.432;2023-06-10T03:07:56;8.68;;;4.72;;
13171;SDS011;6651;53.200;10.432;2023-06-10T03:10:22;10.85;;;4.55;;
13171;SDS011;6651;53.200;10.432;2023-06-10T03:12:48;9.45;;;4.07;;
13171;SDS011;6651;53.200;10.432;2023-06-10T03:15:14;11.95;;;4.78;;
13171;SDS011;6651;53.200;10.432;2023-06-10T03:17:40;10.90;;;4.82;;
13171;SDS011;6651;53.200;10.432;2023-06-10T03:20:07;8.23;;;4.00;;
13171;SDS011;6651;53.200;10.432;2023-06-10T03:22:35;9.07;;;4.18;;
13171;SDS011;6651;53.200;10.432;2023-06-10T03:25:03;11.00;;;4.10;;
13171;SDS011;6651;53.200;10.432;2023-06-10T03:27:29;10.00;;;4.68;;
13171;SDS011;6651;53.200;10.432;2023-06-10T03:29:55;9.18;;;4.45;;
13171;SDS011;6651;53.200;10.432;2023-06-10T03:32:21;8.30;;;4.35;;
13171;SDS011;6651;53.200;10.432;2023-06-10T03:34:47;10.70;;;4.40;;
13171;SDS011;6651;53.200;10.432;2023-06-10T03:37:14;10.75;;;4.20;;
13171;SDS011;6651;53.200;10.432;2023-06-10T03:39:40;10.07;;;4.15;;
13171;SDS011;6651;53.200;10.432;2023-06-10T03:42:06;11.05;;;4.20;;
13171;SDS011;6651;53.200;10.432;2023-06-10T03:44:32;10.10;;;4.57;;
13171;SDS011;6651;53.200;10.432;2023-06-10T03:46:58;11.75;;;4.25;;
13171;SDS011;6651;53.200;10.432;2023-06-10T03:49:25;8.38;;;4.28;;
13171;SDS011;6651;53.200;10.432;2023-06-10T03:51:53;9.35;;;4.22;;
13171;SDS011;6651;53.200;10.432;2023-06-10T03:54:20;7.55;;;4.03;;
13171;SDS011;6651;53.200;10.432;2023-06-10T03:56:46;6.50;;;3.58;;
13171;SDS011;6651;53.200;10.432;2023-06-10T03:59:13;11.48;;;4.45;;
13171;SDS011;6651;53.200;10.432;2023-06-10T04:01:39;9.25;;;3.75;;
13171;SDS011;6651;53.200;10.432;2023-06-10T04:04:06;8.25;;;4.15;;
13171;SDS011;6651;53.200;10.432;2023-06-10T04:06:32;9.90;;;3.95;;
13171;SDS011;6651;53.200;10.432;2023-06-10T04:08:58;8.40;;;4.38;;
13171;SDS011;6651;53.200;10.432;2023-06-10T04:11:24;9.02;;;4.03;;
13171;SDS011;6651;53.200;10.432;2023-06-10T04:13:50;9.30;;;4.05;;
13171;SDS011;6651;53.200;10.432;2023-06-10T04:16:16;9.20;;;4.03;;
13171;SDS011;6651;53.200;10.432;2023-06-10T04:18:42;7.85;;;3.88;;
13171;SDS011;6651;53.200;10.432;2023-06-10T04:21:08;9.32;;;4.10;;
13171;SDS011;6651;53.200;10.432;2023-06-10T04:23:35;10.25;;;4.55;;
13171;SDS011;6651;53.200;10.432;2023-06-10T04:26:02;10.40;;;4.25;;
13171;SDS011;6651;53.200;10.432;2023-06-10T04:28:28;9.90;;;3.83;;
13171;SDS011;6651;53.200;10.432;2023-06-10T04:30:54;10.20;;;3.90;;
13171;SDS011;6651;53.200;10.432;2023-06-10T04:33:20;7.43;;;3.65;;
13171;SDS011;6651;53.200;10.432;2023-06-10T04:35:46;10.48;;;3.55;;
13171;SDS011;6651;53.200;10.432;2023-06-10T04:38:12;7.05;;;3.20;;
13171;SDS011;6651;53.200;10.432;2023-06-10T04:40:38;9.43;;;3.35;;
13171;SDS011;6651;53.200;10.432;2023-06-10T04:43:05;8.18;;;3.35;;
13171;SDS011;6651;53.200;10.432;2023-06-10T04:45:31;7.50;;;3.60;;
13171;SDS011;6651;53.200;10.432;2023-06-10T04:47:57;8.98;;;3.80;;
13171;SDS011;6651;53.200;10.432;2023-06-10T04:50:23;7.80;;;3.72;;
13171;SDS011;6651;53.200;10.432;2023-06-10T04:52:49;9.02;;;3.70;;
13171;SDS011;6651;53.200;10.432;2023-06-10T04:55:15;9.52;;;3.90;;
13171;SDS011;6651;53.200;10.432;2023-06-10T04:57:41;8.30;;;4.03;;
13171;SDS011;6651;53.200;10.432;2023-06-10T05:00:08;8.30;;;3.80;;
13171;SDS011;6651;53.200;10.432;2023-06-10T05:02:34;8.95;;;3.88;;
13171;SDS011;6651;53.200;10.432;2023-06-10T05:05:00;7.20;;;3.60;;
13171;SDS011;6651;53.200;10.432;2023-06-10T05:07:26;11.07;;;4.07;;
13171;SDS011;6651;53.200;10.432;2023-06-10T05:09:52;7.25;;;3.80;;
13171;SDS011;6651;53.200;10.432;2023-06-10T05:12:18;9.43;;;4.10;;
13171;SDS011;6651;53.200;10.432;2023-06-10T05:14:44;10.27;;;3.80;;
13171;SDS011;6651;53.200;10.432;2023-06-10T05:17:11;11.55;;;4.18;;
13171;SDS011;6651;53.200;10.432;2023-06-10T05:19:38;10.15;;;3.90;;
13171;SDS011;6651;53.200;10.432;2023-06-10T05:22:04;10.95;;;3.92;;
13171;SDS011;6651;53.200;10.432;2023-06-10T05:24:30;7.47;;;4.05;;
13171;SDS011;6651;53.200;10.432;2023-06-10T05:26:56;8.43;;;4.05;;
13171;SDS011;6651;53.200;10.432;2023-06-10T05:29:22;8.73;;;3.90;;
13171;SDS011;6651;53.200;10.432;2023-06-10T05:31:48;10.38;;;4.00;;
13171;SDS011;6651;53.200;10.432;2023-06-10T05:34:14;9.85;;;4.00;;
13171;SDS011;6651;53.200;10.432;2023-06-10T05:36:40;7.75;;;3.63;;
13171;SDS011;6651;53.200;10.432;2023-06-10T05:39:06;9.93;;;4.15;;
13171;SDS011;6651;53.200;10.432;2023-06-10T05:41:32;8.50;;;4.07;;
13171;SDS011;6651;53.200;10.432;2023-06-10T05:43:58;8.77;;;4.03;;
13171;SDS011;6651;53.200;10.432;2023-06-10T05:46:24;8.20;;;3.50;;
13171;SDS011;6651;53.200;10.432;2023-06-10T05:48:50;9.23;;;3.88;;
13171;SDS011;6651;53.200;10.432;2023-06-10T05:51:16;8.23;;;4.10;;
13171;SDS011;6651;53.200;10.432;2023-06-10T05:53:42;9.75;;;3.92;;
13171;SDS011;6651;53.200;10.432;2023-06-10T05:56:08;8.88;;;3.95;;
13171;SDS011;6651;53.200;10.432;2023-06-10T05:58:34;12.40;;;4.75;;
13171;SDS011;6651;53.200;10.432;2023-06-10T06:01:00;7.43;;;3.72;;
13171;SDS011;6651;53.200;10.432;2023-06-10T06:03:26;8.32;;;4.00;;
13171;SDS011;6651;53.200;10.432;2023-06-10T06:05:53;9.85;;;3.97;;
13171;SDS011;6651;53.200;10.432;2023-06-10T06:08:19;9.20;;;3.65;;
13171;SDS011;6651;53.200;10.432;2023-06-10T06:10:45;8.57;;;3.83;;
13171;SDS011;6651;53.200;10.432;2023-06-10T06:13:13;7.57;;;3.80;;
13171;SDS011;6651;53.200;10.432;2023-06-10T06:15:39;9.00;;;3.67;;
13171;SDS011;6651;53.200;10.432;2023-06-10T06:18:05;7.82;;;3.80;;
13171;SDS011;6651;53.200;10.432;2023-06-10T06:20:31;8.55;;;3.85;;
13171;SDS011;6651;53.200;10.432;2023-06-10T06:22:57;9.68;;;3.90;;
13171;SDS011;6651;53.200;10.432;2023-06-10T06:25:23;9.63;;;3.78;;
13171;SDS011;6651;53.200;10.432;2023-06-10T06:27:49;8.65;;;3.40;;
13171;SDS011;6651;53.200;10.432;2023-06-10T06:30:15;9.18;;;3.45;;
13171;SDS011;6651;53.200;10.432;2023-06-10T06:32:41;8.75;;;3.55;;
13171;SDS011;6651;53.200;10.432;2023-06-10T06:35:07;7.38;;;3.42;;
13171;SDS011;6651;53.200;10.432;2023-06-10T06:37:34;8.55;;;3.42;;
13171;SDS011;6651;53.200;10.432;2023-06-10T06:40:00;7.03;;;3.65;;
13171;SDS011;6651;53.200;10.432;2023-06-10T06:42:26;7.88;;;3.60;;
13171;SDS011;6651;53.200;10.432;2023-06-10T06:44:52;10.23;;;3.92;;
13171;SDS011;6651;53.200;10.432;2023-06-10T06:47:18;9.25;;;3.72;;
13171;SDS011;6651;53.200;10.432;2023-06-10T06:49:47;9.65;;;3.72;;
13171;SDS011;6651;53.200;10.432;2023-06-10T06:52:14;10.60;;;3.85;;
13171;SDS011;6651;53.200;10.432;2023-06-10T06:54:40;9.82;;;3.58;;
13171;SDS011;6651;53.200;10.432;2023-06-10T06:57:06;8.85;;;3.60;;
13171;SDS011;6651;53.200;10.432;2023-06-10T06:59:33;7.57;;;3.70;;
13171;SDS011;6651;53.200;10.432;2023-06-10T07:01:59;8.38;;;3.25;;
13171;SDS011;6651;53.200;10.432;2023-06-10T07:04:25;10.00;;;3.70;;
13171;SDS011;6651;53.200;10.432;2023-06-10T07:06:51;8.65;;;3.63;;
13171;SDS011;6651;53.200;10.432;2023-06-10T07:09:17;7.35;;;3.33;;
13171;SDS011;6651;53.200;10.432;2023-06-10T07:11:43;10.32;;;3.40;;
13171;SDS011;6651;53.200;10.432;2023-06-10T07:14:09;10.85;;;3.78;;
13171;SDS011;6651;53.200;10.432;2023-06-10T07:16:35;6.57;;;3.60;;
13171;SDS011;6651;53.200;10.432;2023-06-10T07:19:01;8.77;;;3.58;;
13171;SDS011;6651;53.200;10.432;2023-06-10T07:21:29;8.23;;;3.47;;
13171;SDS011;6651;53.200;10.432;2023-06-10T07:23:57;8.52;;;3.38;;
13171;SDS011;6651;53.200;10.432;2023-06-10T07:26:23;7.72;;;3.38;;
13171;SDS011;6651;53.200;10.432;2023-06-10T07:28:49;8.13;;;3.50;;
13171;SDS011;6651;53.200;10.432;2023-06-10T07:31:15;7.90;;;3.55;;
13171;SDS011;6651;53.200;10.432;2023-06-10T07:33:41;6.88;;;3.30;;
13171;SDS011;6651;53.200;10.432;2023-06-10T07:36:08;8.70;;;3.85;;
13171;SDS011;6651;53.200;10.432;2023-06-10T07:38:34;8.02;;;3.67;;
13171;SDS011;6651;53.200;10.432;2023-06-10T07:41:01;8.25;;;3.42;;
13171;SDS011;6651;53.200;10.432;2023-06-10T07:43:27;10.55;;;3.75;;
13171;SDS011;6651;53.200;10.432;2023-06-10T07:45:53;8.05;;;3.63;;
13171;SDS011;6651;53.200;10.432;2023-06-10T07:48:19;9.98;;;3.80;;
13171;SDS011;6651;53.200;10.432;2023-06-10T07:50:45;8.02;;;3.50;;
13171;SDS011;6651;53.200;10.432;2023-06-10T07:53:11;9.38;;;3.60;;
13171;SDS011;6651;53.200;10.432;2023-06-10T07:55:37;6.70;;;3.30;;
13171;SDS011;6651;53.200;10.432;2023-06-10T07:58:03;9.80;;;3.90;;
13171;SDS011;6651;53.200;10.432;2023-06-10T08:00:29;8.27;;;3.47;;
13171;SDS011;6651;53.200;10.432;2023-06-10T08:02:55;6.40;;;3.70;;
13171;SDS011;6651;53.200;10.432;2023-06-10T08:05:21;9.77;;;3.83;;
13171;SDS011;6651;53.200;10.432;2023-06-10T08:07:47;5.72;;;3.20;;
13171;SDS011;6651;53.200;10.432;2023-06-10T08:10:13;7.85;;;3.78;;
13171;SDS011;6651;53.200;10.432;2023-06-10T08:12:39;6.32;;;2.97;;
13171;SDS011;6651;53.200;10.432;2023-06-10T08:15:05;8.32;;;3.78;;
13171;SDS011;6651;53.200;10.432;2023-06-10T08:17:31;8.07;;;3.33;;
13171;SDS011;6651;53.200;10.432;2023-06-10T08:19:57;10.45;;;3.60;;
13171;SDS011;6651;53.200;10.432;2023-06-10T08:22:23;7.82;;;3.30;;
13171;SDS011;6651;53.200;10.432;2023-06-10T08:24:49;8.10;;;3.35;;
13171;SDS011;6651;53.200;10.432;2023-06-10T08:27:15;5.78;;;3.22;;
13171;SDS011;6651;53.200;10.432;2023-06-10T08:29:41;6.47;;;3.47;;
13171;SDS011;6651;53.200;10.432;2023-06-10T08:32:07;7.40;;;3.30;;
13171;SDS011;6651;53.200;10.432;2023-06-10T08:34:34;7.28;;;3.63;;
13171;SDS011;6651;53.200;10.432;2023-06-10T08:37:01;7.90;;;3.75;;
13171;SDS011;6651;53.200;10.432;2023-06-10T08:39:27;6.82;;;3.30;;
13171;SDS011;6651;53.200;10.432;2023-06-10T08:44:29;7.32;;;3.45;;
13171;SDS011;6651;53.200;10.432;2023-06-10T08:47:01;9.38;;;3.95;;
13171;SDS011;6651;53.200;10.432;2023-06-10T08:49:30;7.63;;;3.70;;
13171;SDS011;6651;53.200;10.432;2023-06-10T08:51:59;8.88;;;3.92;;
13171;SDS011;6651;53.200;10.432;2023-06-10T08:54:27;7.40;;;3.65;;
13171;SDS011;6651;53.200;10.432;2023-06-10T08:56:54;8.95;;;3.78;;
13171;SDS011;6651;53.200;10.432;2023-06-10T08:59:21;6.38;;;3.70;;
13171;SDS011;6651;53.200;10.432;2023-06-10T09:01:47;7.13;;;3.65;;
13171;SDS011;6651;53.200;10.432;2023-06-10T09:04:13;8.52;;;3.72;;
13171;SDS011;6651;53.200;10.432;2023-06-10T09:06:41;8.10;;;3.72;;
13171;SDS011;6651;53.200;10.432;2023-06-10T09:09:07;8.20;;;3.92;;
13171;SDS011;6651;53.200;10.432;2023-06-10T09:11:33;10.25;;;3.95;;
13171;SDS011;6651;53.200;10.432;2023-06-10T09:13:59;7.55;;;3.70;;
13171;SDS011;6651;53.200;10.432;2023-06-10T09:16:25;8.27;;;4.13;;
13171;SDS011;6651;53.200;10.432;2023-06-10T09:18:51;10.25;;;4.00;;
13171;SDS011;6651;53.200;10.432;2023-06-10T09:21:22;6.90;;;3.92;;
13171;SDS011;6651;53.200;10.432;2023-06-10T09:23:49;6.97;;;4.05;;
13171;SDS011;6651;53.200;10.432;2023-06-10T09:26:15;6.85;;;3.55;;
13171;SDS011;6651;53.200;10.432;2023-06-10T09:28:43;10.55;;;4.10;;
13171;SDS011;6651;53.200;10.432;2023-06-10T09:31:09;10.00;;;3.80;;
13171;SDS011;6651;53.200;10.432;2023-06-10T09:33:38;7.97;;;4.10;;
13171;SDS011;6651;53.200;10.432;2023-06-10T09:36:04;7.65;;;4.15;;
13171;SDS011;6651;53.200;10.432;2023-06-10T09:38:32;5.97;;;3.60;;
13171;SDS011;6651;53.200;10.432;2023-06-10T09:40:58;8.50;;;3.92;;
13171;SDS011;6651;53.200;10.432;2023-06-10T09:43:41;8.05;;;4.18;;
13171;SDS011;6651;53.200;10.432;2023-06-10T09:46:17;7.75;;;4.25;;
13171;SDS011;6651;53.200;10.432;2023-06-10T09:48:44;7.82;;;3.95;;
13171;SDS011;6651;53.200;10.432;2023-06-10T09:51:11;5.65;;;3.63;;
13171;SDS011;6651;53.200;10.432;2023-06-10T09:53:37;8.27;;;4.20;;
13171;SDS011;6651;53.200;10.432;2023-06-10T09:56:04;7.75;;;4.00;;
13171;SDS011;6651;53.200;10.432;2023-06-10T09:58:37;7.13;;;3.83;;
13171;SDS011;6651;53.200;10.432;2023-06-10T10:01:10;6.13;;;3.80;;
13171;SDS011;6651;53.200;10.432;2023-06-10T10:03:46;8.20;;;3.92;;
13171;SDS011;6651;53.200;10.432;2023-06-10T10:06:13;7.80;;;4.00;;
13171;SDS011;6651;53.200;10.432;2023-06-10T10:08:40;6.55;;;3.97;;
13171;SDS011;6651;53.200;10.432;2023-06-10T10:11:06;8.77;;;4.20;;
13171;SDS011;6651;53.200;10.432;2023-06-10T10:13:33;12.95;;;4.40;;
13171;SDS011;6651;53.200;10.432;2023-06-10T10:16:01;6.63;;;3.80;;
13171;SDS011;6651;53.200;10.432;2023-06-10T10:18:29;6.32;;;4.00;;
13171;SDS011;6651;53.200;10.432;2023-06-10T10:20:57;7.78;;;4.20;;
13171;SDS011;6651;53.200;10.432;2023-06-10T10:23:39;7.93;;;4.10;;
13171;SDS011;6651;53.200;10.432;2023-06-10T10:26:07;8.35;;;4.55;;
13171;SDS011;6651;53.200;10.432;2023-06-10T10:28:41;8.27;;;4.03;;
13171;SDS011;6651;53.200;10.432;2023-06-10T10:31:10;7.22;;;4.03;;
13171;SDS011;6651;53.200;10.432;2023-06-10T10:33:42;7.53;;;4.13;;
13171;SDS011;6651;53.200;10.432;2023-06-10T10:36:11;7.13;;;3.95;;
13171;SDS011;6651;53.200;10.432;2023-06-10T10:38:37;6.60;;;4.20;;
13171;SDS011;6651;53.200;10.432;2023-06-10T10:41:04;7.15;;;4.28;;
13171;SDS011;6651;53.200;10.432;2023-06-10T10:43:30;10.00;;;4.68;;
13171;SDS011;6651;53.200;10.432;2023-06-10T10:46:09;8.20;;;4.50;;
13171;SDS011;6651;53.200;10.432;2023-06-10T10:48:37;8.82;;;4.18;;
13171;SDS011;6651;53.200;10.432;2023-06-10T10:51:04;7.15;;;4.28;;
13171;SDS011;6651;53.200;10.432;2023-06-10T10:53:30;7.45;;;4.18;;
13171;SDS011;6651;53.200;10.432;2023-06-10T10:55:59;6.68;;;4.20;;
13171;SDS011;6651;53.200;10.432;2023-06-10T10:58:28;8.15;;;4.20;;
13171;SDS011;6651;53.200;10.432;2023-06-10T11:00:54;7.55;;;4.20;;
13171;SDS011;6651;53.200;10.432;2023-06-10T11:03:21;7.57;;;4.40;;
13171;SDS011;6651;53.200;10.432;2023-06-10T11:05:47;7.97;;;5.18;;
13171;SDS011;6651;53.200;10.432;2023-06-10T11:08:14;8.55;;;4.70;;
13171;SDS011;6651;53.200;10.432;2023-06-10T11:10:41;7.47;;;4.70;;
13171;SDS011;6651;53.200;10.432;2023-06-10T11:13:14;7.90;;;4.13;;
13171;SDS011;6651;53.200;10.432;2023-06-10T11:15:47;6.03;;;4.35;;
13171;SDS011;6651;53.200;10.432;2023-06-10T11:18:26;7.25;;;4.60;;
13171;SDS011;6651;53.200;10.432;2023-06-10T11:20:59;6.55;;;4.10;;
13171;SDS011;6651;53.200;10.432;2023-06-10T11:28:42;7.38;;;4.30;;
13171;SDS011;6651;53.200;10.432;2023-06-10T11:31:09;8.20;;;4.57;;
13171;SDS011;6651;53.200;10.432;2023-06-10T11:33:44;9.45;;;4.65;;
13171;SDS011;6651;53.200;10.432;2023-06-10T11:36:11;7.75;;;4.85;;
13171;SDS011;6651;53.200;10.432;2023-06-10T11:38:37;9.23;;;4.78;;
13171;SDS011;6651;53.200;10.432;2023-06-10T11:41:03;6.43;;;4.30;;
13171;SDS011;6651;53.200;10.432;2023-06-10T11:43:29;8.32;;;5.25;;
13171;SDS011;6651;53.200;10.432;2023-06-10T11:45:55;8.60;;;4.93;;
13171;SDS011;6651;53.200;10.432;2023-06-10T11:48:21;7.35;;;4.70;;
13171;SDS011;6651;53.200;10.432;2023-06-10T11:50:47;7.93;;;4.55;;
13171;SDS011;6651;53.200;10.432;2023-06-10T11:53:13;7.40;;;4.68;;
13171;SDS011;6651;53.200;10.432;2023-06-10T11:55:43;8.07;;;4.70;;
13171;SDS011;6651;53.200;10.432;2023-06-10T11:58:15;7.45;;;4.40;;
13171;SDS011;6651;53.200;10.432;2023-06-10T12:00:48;6.35;;;4.38;;
13171;SDS011;6651;53.200;10.432;2023-06-10T12:03:15;8.25;;;4.90;;
13171;SDS011;6651;53.200;10.432;2023-06-10T12:05:54;7.43;;;4.60;;
13171;SDS011;6651;53.200;10.432;2023-06-10T12:08:20;6.25;;;4.57;;
13171;SDS011;6651;53.200;10.432;2023-06-10T12:10:46;7.32;;;4.30;;
13171;SDS011;6651;53.200;10.432;2023-06-10T12:13:12;7.45;;;4.43;;
13171;SDS011;6651;53.200;10.432;2023-06-10T12:15:38;6.80;;;4.55;;
13171;SDS011;6651;53.200;10.432;2023-06-10T12:18:04;6.40;;;4.35;;
13171;SDS011;6651;53.200;10.432;2023-06-10T12:20:31;7.93;;;4.50;;
13171;SDS011;6651;53.200;10.432;2023-06-10T12:22:59;8.02;;;4.18;;
13171;SDS011;6651;53.200;10.432;2023-06-10T12:25:25;10.88;;;4.88;;
13171;SDS011;6651;53.200;10.432;2023-06-10T12:27:52;7.93;;;4.75;;
13171;SDS011;6651;53.200;10.432;2023-06-10T12:30:19;7.93;;;4.53;;
13171;SDS011;6651;53.200;10.432;2023-06-10T12:32:46;8.23;;;4.32;;
13171;SDS011;6651;53.200;10.432;2023-06-10T12:35:14;7.15;;;4.68;;
13171;SDS011;6651;53.200;10.432;2023-06-10T12:37:41;6.97;;;4.40;;
13171;SDS011;6651;53.200;10.432;2023-06-10T12:40:07;7.20;;;4.28;;
13171;SDS011;6651;53.200;10.432;2023-06-10T12:42:35;6.72;;;4.38;;
13171;SDS011;6651;53.200;10.432;2023-06-10T12:45:02;9.38;;;4.70;;
13171;SDS011;6651;53.200;10.432;2023-06-10T12:47:35;7.03;;;4.50;;
13171;SDS011;6651;53.200;10.432;2023-06-10T12:50:03;9.30;;;4.63;;
13171;SDS011;6651;53.200;10.432;2023-06-10T12:52:30;8.25;;;4.57;;
13171;SDS011;6651;53.200;10.432;2023-06-10T12:54:56;6.75;;;4.20;;
13171;SDS011;6651;53.200;10.432;2023-06-10T12:57:22;6.85;;;4.35;;
13171;SDS011;6651;53.200;10.432;2023-06-10T12:59:48;7.55;;;4.53;;
13171;SDS011;6651;53.200;10.432;2023-06-10T13:02:20;7.93;;;4.57;;
13171;SDS011;6651;53.200;10.432;2023-06-10T13:04:48;5.53;;;4.22;;
13171;SDS011;6651;53.200;10.432;2023-06-10T13:07:15;7.13;;;4.32;;
13171;SDS011;6651;53.200;10.432;2023-06-10T13:09:41;7.13;;;4.20;;
13171;SDS011;6651;53.200;10.432;2023-06-10T13:12:07;7.43;;;4.80;;
13171;SDS011;6651;53.200;10.432;2023-06-10T13:14:33;7.15;;;4.40;;
13171;SDS011;6651;53.200;10.432;2023-06-10T13:17:00;8.70;;;4.50;;
13171;SDS011;6651;53.200;10.432;2023-06-10T13:19:26;8.07;;;4.57;;
13171;SDS011;6651;53.200;10.432;2023-06-10T13:21:52;7.18;;;4.32;;
13171;SDS011;6651;53.200;10.432;2023-06-10T13:24:18;6.68;;;4.57;;
13171;SDS011;6651;53.200;10.432;2023-06-10T13:26:45;6.78;;;4.70;;
13171;SDS011;6651;53.200;10.432;2023-06-10T13:29:11;6.30;;;4.32;;
13171;SDS011;6651;53.200;10.432;2023-06-10T13:31:39;5.30;;;4.32;;
13171;SDS011;6651;53.200;10.432;2023-06-10T13:34:05;6.05;;;4.13;;
13171;SDS011;6651;53.200;10.432;2023-06-10T13:36:32;7.57;;;4.30;;
13171;SDS011;6651;53.200;10.432;2023-06-10T13:38:58;7.93;;;4.28;;
13171;SDS011;6651;53.200;10.432;2023-06-10T13:41:24;6.90;;;4.18;;
13171;SDS011;6651;53.200;10.432;2023-06-10T13:43:50;6.95;;;4.50;;
13171;SDS011;6651;53.200;10.432;2023-06-10T13:46:16;7.05;;;4.70;;
13171;SDS011;6651;53.200;10.432;2023-06-10T13:48:42;7.10;;;4.55;;
13171;SDS011;6651;53.200;10.432;2023-06-10T13:51:08;6.05;;;4.40;;
13171;SDS011;6651;53.200;10.432;2023-06-10T13:53:34;8.05;;;4.50;;
13171;SDS011;6651;53.200;10.432;2023-06-10T13:56:00;7.00;;;4.47;;
13171;SDS011;6651;53.200;10.432;2023-06-10T13:58:26;7.88;;;4.03;;
13171;SDS011;6651;53.200;10.432;2023-06-10T14:00:52;5.68;;;4.60;;
13171;SDS011;6651;53.200;10.432;2023-06-10T14:03:18;6.32;;;4.13;;
13171;SDS011;6651;53.200;10.432;2023-06-10T14:05:44;4.60;;;3.97;;
13171;SDS011;6651;53.200;10.432;2023-06-10T14:08:11;6.40;;;3.92;;
13171;SDS011;6651;53.200;10.432;2023-06-10T14:10:36;7.95;;;4.50;;
13171;SDS011;6651;53.200;10.432;2023-06-10T14:13:02;7.10;;;4.13;;
13171;SDS011;6651;53.200;10.432;2023-06-10T14:15:28;5.80;;;4.65;;
13171;SDS011;6651;53.200;10.432;2023-06-10T14:17:55;7.10;;;4.55;;
13171;SDS011;6651;53.200;10.432;2023-06-10T14:20:21;7.70;;;4.43;;
13171;SDS011;6651;53.200;10.432;2023-06-10T14:22:48;4.85;;;4.22;;
13171;SDS011;6651;53.200;10.432;2023-06-10T14:25:14;7.80;;;4.68;;
13171;SDS011;6651;53.200;10.432;2023-06-10T14:27:40;5.93;;;4.45;;
13171;SDS011;6651;53.200;10.432;2023-06-10T14:30:07;6.57;;;4.50;;
13171;SDS011;6651;53.200;10.432;2023-06-10T14:32:33;6.78;;;4.55;;
13171;SDS011;6651;53.200;10.432;2023-06-10T14:34:59;7.10;;;4.60;;
13171;SDS011;6651;53.200;10.432;2023-06-10T14:37:25;6.47;;;4.32;;
13171;SDS011;6651;53.200;10.432;2023-06-10T14:39:51;8.57;;;5.20;;
13171;SDS011;6651;53.200;10.432;2023-06-10T14:42:17;8.13;;;4.63;;
13171;SDS011;6651;53.200;10.432;2023-06-10T14:44:43;5.88;;;4.50;;
13171;SDS011;6651;53.200;10.432;2023-06-10T14:47:09;6.32;;;4.50;;
13171;SDS011;6651;53.200;10.432;2023-06-10T14:49:35;7.60;;;4.55;;
13171;SDS011;6651;53.200;10.432;2023-06-10T14:52:01;8.02;;;4.63;;
13171;SDS011;6651;53.200;10.432;2023-06-10T14:54:27;6.68;;;4.97;;